Cinque Terre — IUTV — position and weather

sailwx.info

Track history (hours):
 
Tides and Currents Weather Stations Pressure Air Temp Water Temp Dewpoint Dewpoint Depression Visibility Wind Speed Wind Dir Waves Ship Positions

Cinque Terre

Last reported at 2016-Apr-29 16:07 UTC. Time now 2016-Apr-29 19:49 UTC.
Position N 40°37' E 014°20'.

Length 15 m; draft 1 m.

Type: Passenger vessel. MMSI: 247208400.

Date/timePositionNaut miles runAvg speedWind from/ knotsBaromVisibWave heightAir tempDewpointWater temp
2016-Apr-29 16:07N 40°37' E 014°20'0 0.0
2016-Apr-29 15:33N 40°37' E 014°20'6 5.2
2016-Apr-29 14:26N 40°33' E 014°15'2 1.9
2016-Apr-29 13:33N 40°34' E 014°16'5 0.7
2016-Apr-29 06:33N 40°38' E 014°20'2 0.1
2016-Apr-28 15:33N 40°36' E 014°20'5 5.0
2016-Apr-28 14:31N 40°32' E 014°15'2 1.7
2016-Apr-28 13:33N 40°34' E 014°16'4 0.6
2016-Apr-28 07:07N 40°37' E 014°20'0 0.0
2016-Apr-28 06:20N 40°37' E 014°20'0 0.0
2016-Apr-26 15:33N 40°36' E 014°19'5 5.2
2016-Apr-26 14:33N 40°33' E 014°15'1 0.9
2016-Apr-26 13:33N 40°33' E 014°15'0 0.0
2016-Apr-26 08:24N 40°33' E 014°15'2 2.1
2016-Apr-26 07:33N 40°35' E 014°17'3 3.0
2016-Apr-26 06:27N 40°37' E 014°20'  
2016-Apr-23 06:33N 40°37' E 014°20'0 0.0
2016-Apr-22 12:27N 40°37' E 014°20'3 3.6
2016-Apr-22 11:33N 40°38' E 014°24'5 1.7
2016-Apr-22 08:28N 40°34' E 014°19'4 4.6
2016-Apr-22 07:33N 40°38' E 014°22'2 2.0
2016-Apr-22 06:32N 40°37' E 014°20'0 0.0
2016-Apr-21 15:34N 40°37' E 014°20'5 3.2
2016-Apr-21 14:09N 40°34' E 014°15'1 1.9
2016-Apr-21 13:33N 40°34' E 014°17'3 0.7
2016-Apr-21 08:24N 40°37' E 014°20'4 5.1
2016-Apr-21 07:33N 40°34' E 014°16'4 4.3
2016-Apr-21 06:33N 40°37' E 014°20'2 0.1
2016-Apr-20 15:33N 40°35' E 014°19'3 3.5
2016-Apr-20 14:34N 40°33' E 014°15'0 0.0
2016-Apr-20 09:20N 40°33' E 014°15'1 1.2
2016-Apr-20 08:32N 40°32' E 014°15'3 3.2
2016-Apr-20 07:33N 40°35' E 014°17'  
Track history (hours):
 
Tides and Currents Weather Stations Pressure Air Temp Water Temp Dewpoint Dewpoint Depression Visibility Wind Speed Wind Dir Waves Ship Positions

Cinque Terre

Last reported at 2016-Apr-29 16:07 UTC. Time now 2016-Apr-29 19:49 UTC.
Position N 40°37' E 014°20'.

Length 15 m; draft 1 m.

Type: Passenger vessel. MMSI: 247208400.

Date/timePositionNaut miles runAvg speedWind from/ knotsBaromVisibWave heightAir tempDewpointWater temp
2016-Apr-29 16:07N 40°37' E 014°20'0 0.0
2016-Apr-29 15:33N 40°37' E 014°20'6 5.2
2016-Apr-29 14:26N 40°33' E 014°15'2 1.9
2016-Apr-29 13:33N 40°34' E 014°16'5 0.7
2016-Apr-29 06:33N 40°38' E 014°20'2 0.1
2016-Apr-28 15:33N 40°36' E 014°20'5 5.0
2016-Apr-28 14:31N 40°32' E 014°15'2 1.7
2016-Apr-28 13:33N 40°34' E 014°16'4 0.6
2016-Apr-28 07:07N 40°37' E 014°20'0 0.0
2016-Apr-28 06:20N 40°37' E 014°20'0 0.0
2016-Apr-26 15:33N 40°36' E 014°19'5 5.2
2016-Apr-26 14:33N 40°33' E 014°15'1 0.9
2016-Apr-26 13:33N 40°33' E 014°15'0 0.0
2016-Apr-26 08:24N 40°33' E 014°15'2 2.1
2016-Apr-26 07:33N 40°35' E 014°17'3 3.0
2016-Apr-26 06:27N 40°37' E 014°20'  
2016-Apr-23 06:33N 40°37' E 014°20'0 0.0
2016-Apr-22 12:27N 40°37' E 014°20'3 3.6
2016-Apr-22 11:33N 40°38' E 014°24'5 1.7
2016-Apr-22 08:28N 40°34' E 014°19'4 4.6
2016-Apr-22 07:33N 40°38' E 014°22'2 2.0
2016-Apr-22 06:32N 40°37' E 014°20'0 0.0
2016-Apr-21 15:34N 40°37' E 014°20'5 3.2
2016-Apr-21 14:09N 40°34' E 014°15'1 1.9
2016-Apr-21 13:33N 40°34' E 014°17'3 0.7
2016-Apr-21 08:24N 40°37' E 014°20'4 5.1
2016-Apr-21 07:33N 40°34' E 014°16'4 4.3
2016-Apr-21 06:33N 40°37' E 014°20'2 0.1
2016-Apr-20 15:33N 40°35' E 014°19'3 3.5
2016-Apr-20 14:34N 40°33' E 014°15'0 0.0
2016-Apr-20 09:20N 40°33' E 014°15'1 1.2
2016-Apr-20 08:32N 40°32' E 014°15'3 3.2
2016-Apr-20 07:33N 40°35' E 014°17'  

Dump ship's entire track history